createdAt,value
2022-12-01T00:01:06.057Z,96667.22
2022-12-01T00:02:37.853Z,96661.38
2022-12-01T00:04:09.619Z,96661.75
2022-12-01T00:05:41.240Z,96656.50
2022-12-01T00:07:12.988Z,96653.13
2022-12-01T00:09:03.386Z,96655.47
2022-12-01T00:10:35.786Z,96658.84
2022-12-01T00:12:07.567Z,96656.50
2022-12-01T00:13:40.561Z,96652.50
2022-12-01T00:15:12.566Z,96652.91
2022-12-01T00:16:44.730Z,96652.69
2022-12-01T00:18:16.503Z,96656.91
2022-12-01T00:19:48.347Z,96655.63
2022-12-01T00:21:21.352Z,96655.91
2022-12-01T00:22:52.974Z,96657.84
2022-12-01T00:24:25.361Z,96651.44
2022-12-01T00:26:02.586Z,96660.13
2022-12-01T00:27:34.285Z,96659.19
2022-12-01T00:29:07.345Z,96649.38
2022-12-01T00:30:39.077Z,96651.91
2022-12-01T00:32:10.822Z,96646.16
2022-12-01T00:33:42.533Z,96643.59
2022-12-01T00:35:14.854Z,96649.56
2022-12-01T00:36:46.577Z,96652.22
2022-12-01T00:38:18.379Z,96646.72
2022-12-01T00:39:50.261Z,96650.28
2022-12-01T00:41:22.128Z,96644.94
2022-12-01T00:42:53.783Z,96642.25
2022-12-01T00:44:26.870Z,96643.03
2022-12-01T00:45:58.609Z,96646.44
2022-12-01T00:47:30.342Z,96647.50
2022-12-01T00:49:02.016Z,96650.06
2022-12-01T00:50:33.681Z,96648.66
2022-12-01T00:52:05.774Z,96654.16
2022-12-01T00:53:37.386Z,96651.00
2022-12-01T00:55:09.204Z,96650.44
2022-12-01T00:56:40.931Z,96651.00
2022-12-01T00:58:12.617Z,96653.06
2022-12-01T00:59:45.819Z,96650.94
2022-12-01T01:01:17.764Z,96653.19
2022-12-01T01:02:49.627Z,96653.38
2022-12-01T01:04:21.623Z,96650.34
2022-12-01T01:05:53.269Z,96654.06
2022-12-01T01:07:24.993Z,96651.34
2022-12-01T01:08:56.825Z,96654.28
2022-12-01T01:10:28.657Z,96649.72
2022-12-01T01:12:00.355Z,96642.59
2022-12-01T01:13:32.023Z,96649.94
2022-12-01T01:15:06.081Z,96655.13
2022-12-01T01:16:37.883Z,96652.63
2022-12-01T01:18:10.389Z,96643.59
2022-12-01T01:19:42.017Z,96646.53
2022-12-01T01:21:17.342Z,96643.75
2022-12-01T01:22:49.143Z,96645.50
2022-12-01T01:24:20.816Z,96643.66
2022-12-01T01:25:52.529Z,96641.59
2022-12-01T01:27:24.199Z,96641.59
2022-12-01T01:28:56.949Z,96647.38
2022-12-01T01:30:30.006Z,96644.16
2022-12-01T01:32:01.722Z,96645.50
2022-12-01T01:33:44.239Z,96652.94
2022-12-01T01:35:16.078Z,96654.94
2022-12-01T01:36:48.020Z,96639.91
2022-12-01T01:38:19.753Z,96651.56
2022-12-01T01:39:51.503Z,96642.59
2022-12-01T01:41:23.383Z,96638.41
2022-12-01T01:42:55.035Z,96641.41
2022-12-01T01:44:57.133Z,96648.22
2022-12-01T01:46:31.626Z,96647.94
2022-12-01T01:48:04.483Z,96646.88
2022-12-01T01:49:36.123Z,96645.69
2022-12-01T01:51:07.944Z,96642.75
2022-12-01T01:52:41.276Z,96647.81
2022-12-01T01:54:15.745Z,96641.47
2022-12-01T01:55:47.539Z,96641.78
2022-12-01T01:57:21.292Z,96652.31
2022-12-01T01:58:52.999Z,96657.56
2022-12-01T02:00:24.779Z,96650.03
2022-12-01T02:02:00.654Z,96655.03
2022-12-01T02:03:32.317Z,96657.00
2022-12-01T02:05:04.303Z,96648.69
2022-12-01T02:06:36.002Z,96644.91
2022-12-01T02:08:12.438Z,96649.19
2022-12-01T02:09:44.195Z,96655.44
2022-12-01T02:11:28.218Z,96643.91
2022-12-01T02:13:06.203Z,96643.91
2022-12-01T02:14:57.387Z,96644.91
2022-12-01T02:16:31.774Z,96644.19
2022-12-01T02:18:10.911Z,96639.91
2022-12-01T02:20:02.635Z,96642.75
2022-12-01T02:21:42.376Z,96646.06
2022-12-01T02:23:58.287Z,96635.94
2022-12-01T02:25:35.390Z,96647.63
2022-12-01T02:27:07.813Z,96642.28
2022-12-01T02:28:52.677Z,96640.22
2022-12-01T02:30:36.949Z,96649.09
2022-12-01T02:32:13.173Z,96648.47
2022-12-01T02:33:49.551Z,96641.47
2022-12-01T02:35:24.650Z,96640.03
2022-12-01T02:36:57.900Z,96637.31
2022-12-01T02:38:30.862Z,96644.13
2022-12-01T02:40:06.257Z,96641.78
2022-12-01T02:41:39.442Z,96638.56
2022-12-01T02:43:15.394Z,96641.69
2022-12-01T02:44:47.027Z,96648.09
2022-12-01T02:46:22.971Z,96643.50
2022-12-01T02:47:56.025Z,96643.63
2022-12-01T02:49:28.914Z,96652.88
2022-12-01T02:51:02.876Z,96647.63
2022-12-01T02:52:34.682Z,96652.50
2022-12-01T02:54:09.420Z,96649.97
2022-12-01T02:55:47.592Z,96649.25
2022-12-01T02:57:19.247Z,96651.03
2022-12-01T02:58:51.119Z,96641.69
2022-12-01T03:00:23.010Z,96640.41
2022-12-01T03:02:01.394Z,96646.06
2022-12-01T03:03:41.014Z,96650.75
2022-12-01T03:05:15.241Z,96645.97
2022-12-01T03:06:52.010Z,96639.91
2022-12-01T03:08:27.121Z,96640.56
2022-12-01T03:10:03.482Z,96646.72
2022-12-01T03:11:37.740Z,96641.72
2022-12-01T03:13:14.699Z,96646.63
2022-12-01T03:14:51.099Z,96642.16
2022-12-01T03:16:25.428Z,96646.84
2022-12-01T03:18:01.099Z,96648.41
2022-12-01T03:19:34.704Z,96648.97
2022-12-01T03:21:09.145Z,96646.84
2022-12-01T03:22:43.664Z,96640.94
2022-12-01T03:24:16.220Z,96644.00
2022-12-01T03:25:49.155Z,96642.00
2022-12-01T03:27:21.964Z,96641.44
2022-12-01T03:28:55.035Z,96637.78
2022-12-01T03:30:26.881Z,96634.13
2022-12-01T03:32:00.351Z,96634.25
2022-12-01T03:33:35.106Z,96634.03
2022-12-01T03:35:09.033Z,96635.69
2022-12-01T03:36:42.655Z,96641.50
2022-12-01T03:38:16.308Z,96634.75
2022-12-01T03:39:48.646Z,96635.72
2022-12-01T03:41:22.833Z,96635.59
2022-12-01T03:42:55.680Z,96634.59
2022-12-01T03:44:30.658Z,96637.56
2022-12-01T03:46:03.751Z,96643.63
2022-12-01T03:47:37.570Z,96642.13
2022-12-01T03:49:10.616Z,96640.00
2022-12-01T03:51:02.434Z,96642.63
2022-12-01T03:52:38.641Z,96643.13
2022-12-01T03:54:13.046Z,96638.44
2022-12-01T03:55:44.678Z,96643.72
2022-12-01T03:57:18.736Z,96641.66
2022-12-01T03:58:50.859Z,96644.50
2022-12-01T04:00:22.982Z,96642.94
2022-12-01T04:01:54.684Z,96639.50
2022-12-01T04:03:26.602Z,96643.41
2022-12-01T04:04:59.615Z,96646.34
2022-12-01T04:06:31.358Z,96643.41
2022-12-01T04:08:03.117Z,96644.19
2022-12-01T04:09:34.843Z,96642.28
2022-12-01T04:11:32.226Z,96643.63
2022-12-01T04:13:04.498Z,96647.31
2022-12-01T04:14:36.246Z,96650.47
2022-12-01T04:16:07.985Z,96650.41
2022-12-01T04:17:39.988Z,96648.91
2022-12-01T04:19:11.602Z,96644.91
2022-12-01T04:20:45.207Z,96647.97
2022-12-01T04:22:16.922Z,96654.41
2022-12-01T04:24:00.774Z,96643.13
2022-12-01T04:25:32.388Z,96655.22
2022-12-01T04:27:04.119Z,96653.03
2022-12-01T04:28:35.731Z,96654.03
2022-12-01T04:30:08.395Z,96646.13
2022-12-01T04:31:50.322Z,96658.22
2022-12-01T04:33:22.042Z,96649.34
2022-12-01T04:34:53.690Z,96651.47
2022-12-01T04:36:26.849Z,96658.84
2022-12-01T04:37:58.492Z,96652.97
2022-12-01T04:39:30.122Z,96655.81
2022-12-01T04:41:01.781Z,96652.88
2022-12-01T04:42:33.477Z,96652.09
2022-12-01T04:44:05.592Z,96654.25
2022-12-01T04:45:38.361Z,96663.41
2022-12-01T04:47:09.997Z,96655.03
2022-12-01T04:48:44.593Z,96654.53
2022-12-01T04:50:16.310Z,96654.03
2022-12-01T04:51:49.386Z,96653.25
2022-12-01T04:53:21.046Z,96649.84
2022-12-01T04:54:52.685Z,96657.03
2022-12-01T04:56:24.436Z,96656.09
2022-12-01T04:57:56.331Z,96661.44
2022-12-01T04:59:28.004Z,96661.66
2022-12-01T05:01:01.596Z,96657.75
2022-12-01T05:02:33.938Z,96656.59
2022-12-01T05:04:05.666Z,96654.91
2022-12-01T05:05:37.328Z,96660.88
2022-12-01T05:07:10.380Z,96661.22
2022-12-01T05:08:42.099Z,96658.53
2022-12-01T05:10:14.400Z,96659.09
2022-12-01T05:11:46.091Z,96655.31
2022-12-01T05:13:17.689Z,96666.22
2022-12-01T05:14:49.557Z,96659.59
2022-12-01T05:16:22.032Z,96650.16
2022-12-01T05:17:53.842Z,96665.97
2022-12-01T05:19:44.223Z,96668.59
2022-12-01T05:21:15.851Z,96666.72
2022-12-01T05:23:06.101Z,96659.22
2022-12-01T05:24:38.126Z,96660.88
2022-12-01T05:26:09.814Z,96665.97
2022-12-01T05:27:41.534Z,96669.69
2022-12-01T05:29:13.563Z,96662.34
2022-12-01T05:30:45.286Z,96666.25
2022-12-01T05:32:16.978Z,96665.97
2022-12-01T05:33:48.591Z,96673.09
2022-12-01T05:35:20.272Z,96666.03
2022-12-01T05:36:52.070Z,96663.69
2022-12-01T05:38:25.107Z,96663.09
2022-12-01T05:39:56.747Z,96663.13
2022-12-01T05:41:28.351Z,96667.19
2022-12-01T05:43:00.068Z,96669.06
2022-12-01T05:44:31.723Z,96674.31
2022-12-01T05:46:03.551Z,96669.91
2022-12-01T05:47:35.297Z,96670.91
2022-12-01T05:49:07.021Z,96669.25
2022-12-01T05:50:39.292Z,96671.91
2022-12-01T05:52:10.988Z,96673.75
2022-12-01T05:53:44.016Z,96669.75
2022-12-01T05:55:15.695Z,96665.47
2022-12-01T05:56:47.342Z,96669.47
2022-12-01T05:58:20.652Z,96664.00
2022-12-01T05:59:52.403Z,96670.47
2022-12-01T06:01:24.114Z,96666.22
2022-12-01T06:02:55.731Z,96669.06
2022-12-01T06:04:30.426Z,96672.75
2022-12-01T06:06:02.144Z,96673.63
2022-12-01T06:07:35.791Z,96669.47
2022-12-01T06:09:09.177Z,96669.97
2022-12-01T06:10:40.807Z,96683.28
2022-12-01T06:12:12.568Z,96675.19
2022-12-01T06:13:44.308Z,96668.06
2022-12-01T06:15:16.095Z,96671.97
2022-12-01T06:16:47.800Z,96673.25
2022-12-01T06:18:19.572Z,96680.28
2022-12-01T06:19:51.504Z,96676.09
2022-12-01T06:21:23.457Z,96673.88
2022-12-01T06:22:55.185Z,96680.88
2022-12-01T06:24:28.432Z,96677.25
2022-12-01T06:26:00.221Z,96671.31
2022-12-01T06:27:32.221Z,96683.22
2022-12-01T06:29:03.992Z,96677.81
2022-12-01T06:30:35.665Z,96671.53
2022-12-01T06:32:07.417Z,96681.63
2022-12-01T06:33:39.171Z,96687.19
2022-12-01T06:35:10.848Z,96684.16
2022-12-01T06:36:42.486Z,96677.72
2022-12-01T06:38:14.226Z,96683.09
2022-12-01T06:39:47.682Z,96687.19
2022-12-01T06:41:19.563Z,96683.72
2022-12-01T06:42:51.236Z,96678.22
2022-12-01T06:44:22.928Z,96682.06
2022-12-01T06:46:00.851Z,96689.47
2022-12-01T06:47:33.547Z,96685.72
2022-12-01T06:49:05.252Z,96693.66
2022-12-01T06:50:36.862Z,96696.28
2022-12-01T06:52:09.625Z,96692.03
2022-12-01T06:53:41.255Z,96693.81
2022-12-01T06:55:14.384Z,96689.53
2022-12-01T06:56:46.683Z,96691.13
2022-12-01T06:58:18.751Z,96693.53
2022-12-01T06:59:51.135Z,96686.06
2022-12-01T07:01:23.326Z,96694.44
2022-12-01T07:02:55.112Z,96700.66
2022-12-01T07:04:26.775Z,96702.59
2022-12-01T07:05:59.085Z,96696.75
2022-12-01T07:07:30.822Z,96711.19
2022-12-01T07:09:02.522Z,96707.84
2022-12-01T07:10:35.539Z,96711.53
2022-12-01T07:12:07.526Z,96710.47
2022-12-01T07:13:39.432Z,96713.97
2022-12-01T07:15:11.420Z,96714.59
2022-12-01T07:16:43.121Z,96716.94
2022-12-01T07:18:14.894Z,96715.03
2022-12-01T07:19:46.697Z,96721.66
2022-12-01T07:21:18.444Z,96720.94
2022-12-01T07:22:50.098Z,96720.00
2022-12-01T07:24:21.708Z,96722.66
2022-12-01T07:25:59.701Z,96724.00
2022-12-01T07:27:31.406Z,96723.91
2022-12-01T07:29:03.256Z,96728.41
2022-12-01T07:30:34.959Z,96730.53
2022-12-01T07:32:06.619Z,96724.91
2022-12-01T07:33:38.469Z,96722.56
2022-12-01T07:35:10.273Z,96725.69
2022-12-01T07:36:41.979Z,96725.63
2022-12-01T07:38:17.775Z,96731.03
2022-12-01T07:39:52.527Z,96726.63
2022-12-01T07:41:25.534Z,96732.31
2022-12-01T07:42:57.293Z,96737.22
2022-12-01T07:44:28.924Z,96733.59
2022-12-01T07:46:05.329Z,96729.41
2022-12-01T07:47:36.976Z,96729.59
2022-12-01T07:49:08.793Z,96742.00
2022-12-01T07:50:40.472Z,96735.66
2022-12-01T07:52:12.093Z,96732.31
2022-12-01T07:53:44.264Z,96731.75
2022-12-01T07:55:16.255Z,96726.41
2022-12-01T07:56:49.600Z,96729.53
2022-12-01T07:58:21.267Z,96731.53
2022-12-01T07:59:53.123Z,96732.53
2022-12-01T08:01:25.088Z,96729.41
2022-12-01T08:02:56.864Z,96730.41
2022-12-01T08:04:28.572Z,96729.59
2022-12-01T08:06:00.745Z,96730.19
2022-12-01T08:07:32.451Z,96730.28
2022-12-01T08:09:04.186Z,96730.28
2022-12-01T08:10:35.965Z,96728.22
2022-12-01T08:12:10.464Z,96727.97
2022-12-01T08:13:42.250Z,96727.19
2022-12-01T08:15:14.231Z,96737.81
2022-12-01T08:16:45.896Z,96723.44
2022-12-01T08:18:17.653Z,96734.59
2022-12-01T08:19:49.504Z,96728.47
2022-12-01T08:21:22.616Z,96730.31
2022-12-01T08:22:54.380Z,96726.78
2022-12-01T08:24:26.264Z,96729.81
2022-12-01T08:26:00.653Z,96727.59
2022-12-01T08:27:33.714Z,96726.25
2022-12-01T08:29:05.413Z,96717.56
2022-12-01T08:30:40.214Z,96725.53
2022-12-01T08:32:11.880Z,96729.53
2022-12-01T08:33:43.713Z,96728.19
2022-12-01T08:35:15.450Z,96721.53
2022-12-01T08:36:47.136Z,96718.00
2022-12-01T08:38:18.968Z,96727.88
2022-12-01T08:39:50.701Z,96731.59
2022-12-01T08:41:22.672Z,96732.75
2022-12-01T08:42:55.676Z,96728.63
2022-12-01T08:44:27.349Z,96730.31
2022-12-01T08:45:59.267Z,96728.19
2022-12-01T08:47:30.985Z,96738.00
2022-12-01T08:49:02.678Z,96736.66
2022-12-01T08:50:34.295Z,96723.69
2022-12-01T08:52:05.988Z,96732.28
2022-12-01T08:53:42.581Z,96722.97
2022-12-01T08:55:17.015Z,96731.72
2022-12-01T08:56:48.668Z,96734.72
2022-12-01T08:58:21.804Z,96722.72
2022-12-01T08:59:53.593Z,96730.59
2022-12-01T09:01:28.045Z,96735.88
2022-12-01T09:03:00.787Z,96739.69
2022-12-01T09:04:32.433Z,96738.50
2022-12-01T09:06:04.679Z,96737.44
2022-12-01T09:07:36.410Z,96741.28
2022-12-01T09:09:09.930Z,96740.84
2022-12-01T09:10:50.972Z,96730.72
2022-12-01T09:12:22.614Z,96734.41
2022-12-01T09:14:07.987Z,96734.50
2022-12-01T09:15:39.713Z,96736.50
2022-12-01T09:17:11.500Z,96739.69
2022-12-01T09:18:46.060Z,96736.41
2022-12-01T09:20:18.223Z,96740.06
2022-12-01T09:21:50.039Z,96740.13
2022-12-01T09:23:22.179Z,96739.81
2022-12-01T09:24:54.221Z,96741.13
2022-12-01T09:26:25.979Z,96746.13
2022-12-01T09:27:57.715Z,96744.84
2022-12-01T09:29:33.729Z,96742.69
2022-12-01T09:31:06.130Z,96735.88
2022-12-01T09:32:37.890Z,96744.06
2022-12-01T09:34:11.464Z,96749.38
2022-12-01T09:35:43.856Z,96744.25
2022-12-01T09:37:33.274Z,96743.97
2022-12-01T09:39:07.509Z,96744.97
2022-12-01T09:40:42.781Z,96746.81
2022-12-01T09:42:32.284Z,96749.75
2022-12-01T09:44:15.764Z,96745.81
2022-12-01T09:45:51.463Z,96746.63
2022-12-01T09:47:26.495Z,96750.44
2022-12-01T09:48:58.264Z,96745.75
2022-12-01T09:50:30.522Z,96752.09
2022-12-01T09:52:02.371Z,96751.03
2022-12-01T09:53:34.126Z,96743.50
2022-12-01T09:55:11.824Z,96751.91
2022-12-01T09:56:45.275Z,96736.50
2022-12-01T09:58:18.671Z,96739.13
2022-12-01T09:59:50.507Z,96736.38
2022-12-01T10:01:28.412Z,96739.41
2022-12-01T10:03:03.156Z,96736.69
2022-12-01T10:04:36.469Z,96729.56
2022-12-01T10:06:26.818Z,96733.94
2022-12-01T10:08:00.920Z,96732.00
2022-12-01T10:09:36.547Z,96729.28
2022-12-01T10:11:12.711Z,96725.75
2022-12-01T10:12:45.615Z,96722.53
2022-12-01T10:14:20.475Z,96724.59
2022-12-01T10:15:55.739Z,96719.75
2022-12-01T10:17:31.400Z,96717.25
2022-12-01T10:19:06.021Z,96714.41
2022-12-01T10:20:41.681Z,96719.59
2022-12-01T10:22:22.158Z,96722.53
2022-12-01T10:24:07.151Z,96712.19
2022-12-01T10:25:44.819Z,96711.19
2022-12-01T10:27:23.314Z,96707.97
2022-12-01T10:29:07.481Z,96708.59
2022-12-01T10:30:41.020Z,96711.44
2022-12-01T10:32:15.480Z,96706.06
2022-12-01T10:34:02.661Z,96701.56
2022-12-01T10:35:39.474Z,96699.03
2022-12-01T10:37:13.234Z,96704.03
2022-12-01T10:38:45.011Z,96698.34
2022-12-01T10:40:17.393Z,96699.22
2022-12-01T10:41:49.693Z,96701.78
2022-12-01T10:43:33.002Z,96699.03
2022-12-01T10:45:10.813Z,96703.91
2022-12-01T10:46:44.814Z,96699.13
2022-12-01T10:48:17.756Z,96693.38
2022-12-01T10:49:53.965Z,96695.63
2022-12-01T10:51:26.621Z,96692.28
2022-12-01T10:52:58.298Z,96689.56
2022-12-01T10:54:33.983Z,96686.34
2022-12-01T10:56:06.923Z,96687.31
2022-12-01T10:57:39.017Z,96688.19
2022-12-01T10:59:27.921Z,96692.00
2022-12-01T11:01:01.637Z,96694.75
2022-12-01T11:02:33.957Z,96691.91
2022-12-01T11:04:06.842Z,96686.53
2022-12-01T11:05:41.053Z,96682.53
2022-12-01T11:07:20.417Z,96685.44
2022-12-01T11:08:53.536Z,96689.38
2022-12-01T11:10:26.540Z,96685.75
2022-12-01T11:12:15.008Z,96687.59
2022-12-01T11:13:46.951Z,96679.38
2022-12-01T11:15:20.952Z,96678.50
2022-12-01T11:16:53.972Z,96685.34
2022-12-01T11:18:29.259Z,96676.38
2022-12-01T11:20:24.187Z,96683.78
2022-12-01T11:21:58.290Z,96680.41
2022-12-01T11:23:30.192Z,96672.47
2022-12-01T11:25:03.138Z,96677.75
2022-12-01T11:26:34.925Z,96671.97
2022-12-01T11:28:06.761Z,96674.03
2022-12-01T11:29:38.631Z,96674.44
2022-12-01T11:31:10.609Z,96678.72
2022-12-01T11:32:42.482Z,96678.13
2022-12-01T11:34:16.284Z,96686.06
2022-12-01T11:35:48.296Z,96683.63
2022-12-01T11:37:23.397Z,96676.00
2022-12-01T11:38:56.757Z,96680.09
2022-12-01T11:40:29.764Z,96679.22
2022-12-01T11:42:02.278Z,96677.84
2022-12-01T11:43:35.116Z,96676.78
2022-12-01T11:45:09.276Z,96683.91
2022-12-01T11:46:50.127Z,96676.78
2022-12-01T11:48:30.769Z,96674.72
2022-12-01T11:50:04.141Z,96676.00
2022-12-01T11:51:39.243Z,96669.44
2022-12-01T11:53:26.496Z,96671.78
2022-12-01T11:55:09.746Z,96674.03
2022-12-01T11:56:45.522Z,96676.00
2022-12-01T11:58:17.636Z,96672.38
2022-12-01T11:59:49.659Z,96677.06
2022-12-01T12:01:30.191Z,96676.97
2022-12-01T12:03:10.328Z,96671.56
2022-12-01T12:04:58.717Z,96666.78
2022-12-01T12:06:39.974Z,96670.50
2022-12-01T12:08:17.299Z,96664.66
2022-12-01T12:10:01.919Z,96669.16
2022-12-01T12:11:38.596Z,96666.50
2022-12-01T12:13:22.143Z,96660.34
2022-12-01T12:15:02.912Z,96664.06
2022-12-01T12:16:43.001Z,96669.91
2022-12-01T12:18:24.167Z,96662.97
2022-12-01T12:20:10.277Z,96667.47
2022-12-01T12:21:44.778Z,96661.13
2022-12-01T12:23:25.870Z,96666.50
2022-12-01T12:25:05.972Z,96670.59
2022-12-01T12:26:39.682Z,96663.28
2022-12-01T12:28:19.671Z,96660.16
2022-12-01T12:30:02.293Z,96664.06
2022-12-01T12:31:38.232Z,96664.94
2022-12-01T12:33:30.390Z,96664.06
2022-12-01T12:35:06.100Z,96666.41
2022-12-01T12:36:42.702Z,96667.19
2022-12-01T12:38:32.195Z,96670.50
2022-12-01T12:40:21.833Z,96661.41
2022-12-01T12:41:54.275Z,96658.94
2022-12-01T12:43:29.611Z,96664.75
2022-12-01T12:45:07.756Z,96661.28
2022-12-01T12:46:43.127Z,96663.38
2022-12-01T12:48:21.807Z,96658.16
2022-12-01T12:49:58.858Z,96656.31
2022-12-01T12:51:33.241Z,96660.44
2022-12-01T12:53:06.730Z,96657.38
2022-12-01T12:54:43.815Z,96657.59
2022-12-01T12:56:18.409Z,96661.28
2022-12-01T12:57:52.597Z,96652.88
2022-12-01T12:59:26.699Z,96652.81
2022-12-01T13:01:03.527Z,96653.09
2022-12-01T13:02:38.253Z,96653.00
2022-12-01T13:04:12.480Z,96656.53
2022-12-01T13:05:47.645Z,96654.06
2022-12-01T13:07:29.225Z,96650.47
2022-12-01T13:09:02.458Z,96657.91
2022-12-01T13:10:37.451Z,96661.22
2022-12-01T13:12:15.834Z,96656.34
2022-12-01T13:13:54.737Z,96654.78
2022-12-01T13:15:26.585Z,96651.31
2022-12-01T13:16:59.292Z,96645.56
2022-12-01T13:18:34.671Z,96647.41
2022-12-01T13:20:07.767Z,96648.59
2022-12-01T13:21:44.859Z,96642.91
2022-12-01T13:23:20.124Z,96640.28
2022-12-01T13:24:51.841Z,96645.19
2022-12-01T13:26:29.741Z,96644.88
2022-12-01T13:28:02.996Z,96646.75
2022-12-01T13:29:44.266Z,96647.91
2022-12-01T13:31:17.145Z,96648.78
2022-12-01T13:32:58.006Z,96645.19
2022-12-01T13:34:32.972Z,96646.81
2022-12-01T13:36:38.568Z,96642.91
2022-12-01T13:38:19.863Z,96646.63
2022-12-01T13:39:51.712Z,96644.88
2022-12-01T13:41:24.569Z,96639.78
2022-12-01T13:42:59.403Z,96647.81
2022-12-01T13:44:37.264Z,96644.09
2022-12-01T13:46:20.997Z,96644.59
2022-12-01T13:47:54.383Z,96641.94
2022-12-01T13:49:40.816Z,96640.38
2022-12-01T13:51:12.599Z,96644.78
2022-12-01T13:52:49.153Z,96637.84
2022-12-01T13:54:30.174Z,96645.88
2022-12-01T13:56:25.894Z,96638.94
2022-12-01T13:58:22.997Z,96642.94
2022-12-01T14:00:21.981Z,96645.66
2022-12-01T14:02:15.662Z,96640.69
2022-12-01T14:03:52.242Z,96652.91
2022-12-01T14:05:43.473Z,96642.94
2022-12-01T14:07:37.154Z,96642.06
2022-12-01T14:09:15.499Z,96646.75
2022-12-01T14:10:52.873Z,96650.56
2022-12-01T14:12:26.617Z,96642.66
2022-12-01T14:14:00.172Z,96640.00
2022-12-01T14:15:36.919Z,96643.13
2022-12-01T14:17:22.658Z,96642.16
2022-12-01T14:18:55.149Z,96643.63
2022-12-01T14:20:27.662Z,96639.03
2022-12-01T14:21:59.599Z,96643.72
2022-12-01T14:23:34.329Z,96648.41
2022-12-01T14:25:19.135Z,96646.38
2022-12-01T14:26:50.903Z,96656.22
2022-12-01T14:28:40.748Z,96653.31
2022-12-01T14:30:50.497Z,96647.56
2022-12-01T14:32:23.894Z,96649.22
2022-12-01T14:33:59.064Z,96649.50
2022-12-01T14:35:30.791Z,96649.69
2022-12-01T14:37:05.241Z,96641.50
2022-12-01T14:38:36.946Z,96649.09
2022-12-01T14:40:15.524Z,96642.47
2022-12-01T14:41:48.326Z,96650.28
2022-12-01T14:43:38.596Z,96658.22
2022-12-01T14:45:11.925Z,96657.22
2022-12-01T14:46:45.992Z,96655.47
2022-12-01T14:48:22.326Z,96656.84
2022-12-01T14:49:55.961Z,96661.34
2022-12-01T14:51:28.695Z,96665.81
2022-12-01T14:53:04.332Z,96665.22
2022-12-01T14:54:47.655Z,96661.91
2022-12-01T14:56:20.312Z,96664.63
2022-12-01T14:57:52.823Z,96659.75
2022-12-01T14:59:26.330Z,96660.06
2022-12-01T15:01:06.160Z,96654.50
2022-12-01T15:02:39.441Z,96658.22
2022-12-01T15:04:12.522Z,96657.78
2022-12-01T15:05:44.404Z,96662.59
2022-12-01T15:07:20.475Z,96658.69
2022-12-01T15:09:32.022Z,96664.94
2022-12-01T15:10:57.747Z,96657.22
2022-12-01T15:12:29.798Z,96661.13
2022-12-01T15:14:01.756Z,96658.97
2022-12-01T15:15:33.514Z,96656.81
2022-12-01T15:17:06.291Z,96658.00
2022-12-01T15:18:40.216Z,96651.44
2022-12-01T15:20:32.135Z,96657.91
2022-12-01T15:22:06.130Z,96657.59
2022-12-01T15:23:37.765Z,96659.75
2022-12-01T15:25:13.223Z,96655.66
2022-12-01T15:26:46.835Z,96650.97
2022-12-01T15:28:19.487Z,96659.47
2022-12-01T15:29:51.478Z,96653.00
2022-12-01T15:31:23.369Z,96652.94
2022-12-01T15:32:55.268Z,96656.66
2022-12-01T15:34:30.496Z,96662.41
2022-12-01T15:36:04.138Z,96659.16
2022-12-01T15:37:41.073Z,96661.31
2022-12-01T15:39:15.619Z,96657.63
2022-12-01T15:41:21.294Z,96660.16
2022-12-01T15:42:39.612Z,96659.06
2022-12-01T15:44:18.811Z,96659.06
2022-12-01T15:45:54.364Z,96653.88
2022-12-01T15:47:35.926Z,96657.31
2022-12-01T15:49:08.639Z,96655.56
2022-12-01T15:50:46.224Z,96658.00
2022-12-01T15:52:19.828Z,96657.00
2022-12-01T15:53:54.051Z,96655.75
2022-12-01T15:55:27.530Z,96657.13
2022-12-01T15:56:59.541Z,96657.88
2022-12-01T15:58:32.997Z,96655.56
2022-12-01T16:00:05.961Z,96653.50
2022-12-01T16:01:37.940Z,96653.50
2022-12-01T16:03:12.437Z,96659.84
2022-12-01T16:04:44.192Z,96664.22
2022-12-01T16:06:16.049Z,96659.94
2022-12-01T16:09:41.663Z,96660.13
2022-12-01T16:11:14.427Z,96652.88
2022-12-01T16:12:46.135Z,96656.03
2022-12-01T16:14:21.654Z,96662.94
2022-12-01T16:15:53.381Z,96652.44
2022-12-01T16:17:25.113Z,96657.22
2022-12-01T16:18:57.814Z,96658.78
2022-12-01T16:20:31.984Z,96656.44
2022-12-01T16:22:13.926Z,96653.97
2022-12-01T16:23:47.077Z,96650.84
2022-12-01T16:25:30.624Z,96646.63
2022-12-01T16:27:03.780Z,96652.31
2022-12-01T16:28:36.223Z,96650.94
2022-12-01T16:30:20.075Z,96655.81
2022-12-01T16:32:13.035Z,96658.38
2022-12-01T16:33:43.920Z,96655.47
2022-12-01T16:35:24.585Z,96657.13
2022-12-01T16:37:12.024Z,96653.31
2022-12-01T16:38:51.256Z,96659.13
2022-12-01T16:40:28.103Z,96651.03
2022-12-01T16:42:00.553Z,96659.63
2022-12-01T16:43:32.964Z,96658.66
2022-12-01T16:45:05.448Z,96656.78
2022-12-01T16:46:37.501Z,96660.81
2022-12-01T16:48:11.739Z,96665.97
2022-12-01T16:49:43.642Z,96664.94
2022-12-01T16:51:17.320Z,96660.44
2022-12-01T16:52:56.021Z,96661.41
2022-12-01T16:54:32.856Z,96664.31
2022-12-01T16:56:04.987Z,96665.28
2022-12-01T16:57:36.848Z,96666.22
2022-12-01T16:59:08.522Z,96661.41
2022-12-01T17:00:40.406Z,96664.84
2022-12-01T17:02:12.334Z,96662.00
2022-12-01T17:03:44.244Z,96665.97
2022-12-01T17:05:16.042Z,96665.00
2022-12-01T17:06:47.894Z,96668.25
2022-12-01T17:08:19.712Z,96663.88
2022-12-01T17:09:53.017Z,96659.38
2022-12-01T17:11:24.929Z,96660.94
2022-12-01T17:12:57.143Z,96659.72
2022-12-01T17:14:30.957Z,96668.91
2022-12-01T17:16:04.478Z,96664.22
2022-12-01T17:17:39.222Z,96660.81
2022-12-01T17:19:11.274Z,96658.56
2022-12-01T17:20:43.222Z,96656.22
2022-12-01T17:22:17.653Z,96662.50
2022-12-01T17:23:49.691Z,96663.16
2022-12-01T17:25:22.860Z,96655.44
2022-12-01T17:26:54.615Z,96659.53
2022-12-01T17:28:29.156Z,96661.69
2022-12-01T17:30:00.881Z,96660.00
2022-12-01T17:31:35.367Z,96662.47
2022-12-01T17:33:07.254Z,96656.41
2022-12-01T17:34:39.021Z,96666.66
2022-12-01T17:36:21.070Z,96660.41
2022-12-01T17:37:52.838Z,96660.22
2022-12-01T17:39:24.534Z,96661.78
2022-12-01T17:41:01.900Z,96665.56
2022-12-01T17:42:34.116Z,96666.16
2022-12-01T17:44:05.971Z,96662.06
2022-12-01T17:45:42.135Z,96664.59
2022-12-01T17:47:14.078Z,96668.31
2022-12-01T17:48:46.343Z,96667.72
2022-12-01T17:50:18.207Z,96661.28
2022-12-01T17:51:50.069Z,96660.78
2022-12-01T17:53:23.652Z,96659.91
2022-12-01T17:55:01.399Z,96671.28
2022-12-01T17:56:37.700Z,96665.88
2022-12-01T17:58:09.534Z,96659.13
2022-12-01T17:59:41.342Z,96665.66
2022-12-01T18:01:17.965Z,96663.81
2022-12-01T18:02:50.947Z,96669.09
2022-12-01T18:04:22.903Z,96669.19
2022-12-01T18:05:56.106Z,96668.88
2022-12-01T18:07:27.912Z,96664.50
2022-12-01T18:09:00.183Z,96665.97
2022-12-01T18:10:31.888Z,96669.09
2022-12-01T18:12:05.600Z,96672.41
2022-12-01T18:13:37.509Z,96663.44
2022-12-01T18:15:10.327Z,96672.69
2022-12-01T18:16:44.962Z,96672.41
2022-12-01T18:18:19.196Z,96674.47
2022-12-01T18:19:53.694Z,96676.53
2022-12-01T18:21:25.605Z,96677.19
2022-12-01T18:22:57.335Z,96676.41
2022-12-01T18:24:31.036Z,96674.56
2022-12-01T18:26:08.583Z,96676.41
2022-12-01T18:27:58.302Z,96676.31
2022-12-01T18:29:30.815Z,96675.94
2022-12-01T18:31:06.240Z,96671.84
2022-12-01T18:32:38.445Z,96676.22
2022-12-01T18:34:10.585Z,96675.53
2022-12-01T18:35:43.662Z,96674.09